Time;durP1;ratioP1;P1;durP2;ratioP2;P2;SDS_P1;SDS_P2;PMS_P1;PMS_P2;Temp;Humidity;BMP_temperature;BMP_pressure;BME280_temperature;BME280_humidity;BME280_pressure;Samples;Min_cycle;Max_cycle;Signal;HPM_P1;HPM_P2
2023/02/13 00:01:11;;;;;;;1999.90;999.90;;;;;;;2.77;100.00;99960.66;5011788;28;20108;-74
2023/02/13 00:03:37;;;;;;;1999.90;999.90;;;;;;;2.86;100.00;99969.47;5012007;28;20036;-81
2023/02/13 00:06:02;;;;;;;1999.90;999.90;;;;;;;2.89;100.00;99969.91;5011431;28;20113;-78
2023/02/13 00:08:28;;;;;;;1999.90;999.90;;;;;;;2.97;100.00;99968.94;5011877;28;20037;-78
2023/02/13 00:10:53;;;;;;;1999.90;999.90;;;;;;;3.10;100.00;99969.84;5013969;28;20058;-79
2023/02/13 00:13:18;;;;;;;1999.90;999.90;;;;;;;3.01;100.00;99965.63;5012829;28;20463;-76
2023/02/13 00:15:44;;;;;;;1999.90;999.90;;;;;;;3.09;100.00;99968.19;5011886;28;20025;-74
2023/02/13 00:18:09;;;;;;;1999.90;999.90;;;;;;;3.04;100.00;99965.22;5018174;28;20030;-80
2023/02/13 00:20:34;;;;;;;1999.90;999.90;;;;;;;2.93;100.00;99963.09;5011506;28;20018;-76
2023/02/13 00:23:00;;;;;;;1999.90;999.90;;;;;;;2.97;100.00;99963.53;5012271;28;20033;-80
2023/02/13 00:25:25;;;;;;;1999.90;999.90;;;;;;;2.96;100.00;99962.69;5012378;28;20010;-77
2023/02/13 00:27:52;;;;;;;1999.90;999.90;;;;;;;2.96;100.00;99973.50;5011713;28;20022;-79
2023/02/13 00:30:18;;;;;;;1999.90;999.90;;;;;;;3.04;100.00;99986.84;5011496;28;20021;-76
2023/02/13 00:32:44;;;;;;;1999.90;999.90;;;;;;;2.98;100.00;99962.47;5011230;28;20128;-79
2023/02/13 00:35:09;;;;;;;1999.90;999.90;;;;;;;3.03;100.00;99970.84;5010348;28;20018;-77
2023/02/13 00:37:34;;;;;;;1999.90;999.90;;;;;;;3.07;100.00;99978.34;5011018;28;20022;-77
2023/02/13 00:40:00;;;;;;;1999.90;999.90;;;;;;;3.12;100.00;99973.22;5012522;28;20041;-80
2023/02/13 00:42:25;;;;;;;1999.90;999.90;;;;;;;3.14;100.00;99981.94;5012024;28;20471;-80
2023/02/13 00:44:52;;;;;;;1999.90;999.90;;;;;;;3.10;100.00;99969.84;5013541;28;20025;-84
2023/02/13 00:47:18;;;;;;;1999.90;999.90;;;;;;;3.13;100.00;99985.66;5011689;28;20037;-77
2023/02/13 00:49:43;;;;;;;1999.90;999.90;;;;;;;3.01;100.00;99979.16;5011627;28;20030;-79
2023/02/13 00:52:08;;;;;;;1999.90;999.90;;;;;;;3.02;100.00;99983.53;4992299;28;20022;-76
2023/02/13 00:54:34;;;;;;;1999.90;999.90;;;;;;;2.93;100.00;99978.47;5012757;28;20058;-76
2023/02/13 00:56:59;;;;;;;1999.90;999.90;;;;;;;2.87;100.00;99992.75;5011614;28;20026;-75
2023/02/13 00:59:24;;;;;;;1999.90;999.90;;;;;;;2.89;100.00;99990.69;4996249;28;20113;-76
2023/02/13 01:01:50;;;;;;;1999.90;999.90;;;;;;;2.90;100.00;99995.91;5012143;28;20096;-79
2023/02/13 01:04:15;;;;;;;1999.90;999.90;;;;;;;2.83;100.00;99988.78;5011337;28;20045;-79
2023/02/13 01:06:40;;;;;;;1999.90;999.90;;;;;;;2.72;100.00;99988.25;5011234;28;20165;-75
2023/02/13 01:09:06;;;;;;;1999.90;999.90;;;;;;;2.76;100.00;99998.72;4993324;28;20067;-78
2023/02/13 01:11:31;;;;;;;1999.90;999.90;;;;;;;2.73;100.00;99994.50;5010654;28;20105;-78
2023/02/13 01:13:56;;;;;;;1999.90;999.90;;;;;;;2.59;100.00;100000.84;5010950;28;20034;-77
2023/02/13 01:16:22;;;;;;;1999.90;999.90;;;;;;;2.57;100.00;99997.47;5011023;28;20449;-75
2023/02/13 01:18:47;;;;;;;1999.90;999.90;;;;;;;2.45;100.00;99977.41;5010896;28;20034;-75
2023/02/13 01:21:18;;;;;;;1999.90;999.90;;;;;;;2.33;100.00;99977.09;5011034;28;20117;-74
2023/02/13 01:23:44;;;;;;;1999.90;999.90;;;;;;;2.36;100.00;99974.00;5010655;28;20053;-76
2023/02/13 01:26:16;;;;;;;1999.90;999.90;;;;;;;2.39;100.00;99978.19;5010969;28;20115;-76
2023/02/13 01:28:41;;;;;;;1999.90;999.90;;;;;;;2.48;100.00;99975.16;5011651;28;20487;-74
2023/02/13 01:31:07;;;;;;;1999.90;999.90;;;;;;;2.52;100.00;99981.03;5012508;28;20073;-75
2023/02/13 01:33:33;;;;;;;1999.90;999.90;;;;;;;2.53;100.00;99963.78;5015032;28;20148;-77
2023/02/13 01:35:59;;;;;;;1999.90;999.90;;;;;;;2.52;100.00;99964.81;5014510;28;20104;-77
2023/02/13 01:38:24;;;;;;;1999.90;999.90;;;;;;;2.53;100.00;99977.31;5011700;28;20482;-78
2023/02/13 01:40:52;;;;;;;1999.90;999.90;;;;;;;2.57;100.00;99965.06;5010753;28;20034;-76
2023/02/13 01:43:18;;;;;;;1999.90;999.90;;;;;;;2.53;100.00;99964.63;5010790;28;20026;-76
2023/02/13 01:45:47;;;;;;;1999.90;999.90;;;;;;;2.44;100.00;99956.88;4980215;28;20496;-75
2023/02/13 01:48:22;;;;;;;1999.90;999.90;;;;;;;2.48;100.00;99967.06;4957850;28;20027;-74
2023/02/13 01:50:58;;;;;;;1999.90;999.90;;;;;;;2.54;100.00;99951.94;4958270;28;20380;-75
2023/02/13 01:53:26;;;;;;;1999.90;999.90;;;;;;;2.58;100.00;99958.63;4975629;28;20093;-75
2023/02/13 01:55:58;;;;;;;1999.90;999.90;;;;;;;2.48;100.00;99950.03;4975507;28;20035;-76
2023/02/13 01:58:30;;;;;;;1999.90;999.90;;;;;;;2.51;100.00;99958.56;4975955;28;20031;-75
2023/02/13 02:00:57;;;;;;;1999.90;999.90;;;;;;;2.34;100.00;99953.66;4979173;28;20026;-78
2023/02/13 02:03:37;;;;;;;1999.90;999.90;;;;;;;2.44;100.00;99951.47;4976137;28;20031;-75
2023/02/13 02:06:06;;;;;;;1999.90;999.90;;;;;;;2.35;100.00;99948.03;4975205;28;20082;-76
2023/02/13 02:08:32;;;;;;;1999.90;999.90;;;;;;;2.36;100.00;99952.41;4975597;28;20134;-75
2023/02/13 02:11:06;;;;;;;1999.90;999.90;;;;;;;2.46;100.00;99952.09;4957819;28;20035;-77
2023/02/13 02:13:31;;;;;;;1999.90;999.90;;;;;;;2.46;100.00;99954.78;4974937;28;20039;-73
2023/02/13 02:15:57;;;;;;;1999.90;999.90;;;;;;;2.37;100.00;99954.09;4975132;28;20026;-74
2023/02/13 02:18:23;;;;;;;1999.90;999.90;;;;;;;2.36;100.00;99949.72;4975102;28;20062;-74
2023/02/13 02:21:14;;;;;;;1999.90;999.90;;;;;;;2.45;100.00;99958.50;4975039;28;20129;-74
2023/02/13 02:23:42;;;;;;;1999.90;999.90;;;;;;;2.37;100.00;99951.41;4976585;28;20739;-75
2023/02/13 02:26:52;;;;;;;1999.90;999.90;;;;;;;2.35;100.00;99949.94;4977387;28;20078;-73
2023/02/13 02:30:07;;;;;;;1999.90;999.90;;;;;;;2.27;100.00;99950.03;4958233;28;20137;-75
2023/02/13 02:33:06;;;;;;;1999.90;999.90;;;;;;;2.16;100.00;99941.41;4974707;28;20034;-73
2023/02/13 02:35:36;;;;;;;1999.90;999.90;;;;;;;2.13;100.00;99938.28;4957506;28;20395;-74
2023/02/13 02:38:16;;;;;;;1999.90;999.90;;;;;;;2.11;100.00;99938.47;4976267;28;20061;-76
2023/02/13 02:41:41;;;;;;;1999.90;999.90;;;;;;;2.04;100.00;99934.84;5025031;28;20056;-74
2023/02/13 02:44:33;;;;;;;1999.90;999.90;;;;;;;2.10;100.00;99933.25;4972263;28;20093;-74
2023/02/13 02:50:23;;;;;;;1999.90;999.90;;;;;;;2.11;100.00;99935.78;5033230;28;20084;-74
2023/02/13 02:52:59;;;;;;;1999.90;999.90;;;;;;;2.16;100.00;99938.72;5033249;28;20035;-74
2023/02/13 02:55:40;;;;;;;1999.90;999.90;;;;;;;2.15;100.00;99934.38;5035321;28;20040;-77
2023/02/13 03:06:47;;;;;;;1999.90;999.90;;;;;;;2.12;100.00;99950.94;5033170;28;20492;-74
2023/02/13 03:15:03;;;;;;;1999.90;999.90;;;;;;;2.24;100.00;99948.56;5032825;28;20152;-74
2023/02/13 03:23:22;;;;;;;1999.90;999.90;;;;;;;2.03;100.00;99962.91;5032879;28;20409;-76
2023/02/13 03:26:04;;;;;;;1999.90;999.90;;;;;;;2.08;100.00;99965.84;5032347;28;20036;-77
2023/02/13 03:31:46;;;;;;;1999.90;999.90;;;;;;;2.13;100.00;99947.19;5032889;28;20167;-75
2023/02/13 03:34:19;;;;;;;1999.90;999.90;;;;;;;2.07;100.00;99957.91;5032493;28;20029;-74
2023/02/13 03:39:45;;;;;;;1999.90;999.90;;;;;;;1.94;100.00;99939.72;5032215;28;20136;-73
2023/02/13 03:42:38;;;;;;;1999.90;999.90;;;;;;;2.17;100.00;99956.59;5014408;28;20041;-74
2023/02/13 03:48:08;;;;;;;1999.90;999.90;;;;;;;2.03;100.00;99946.69;5033436;28;20044;-76
2023/02/13 03:50:38;;;;;;;1999.90;999.90;;;;;;;1.99;100.00;99961.59;5017730;28;20025;-76
2023/02/13 03:53:08;;;;;;;1999.90;999.90;;;;;;;1.95;100.00;99952.19;5032421;28;20024;-76
2023/02/13 04:01:16;;;;;;;1999.90;999.90;;;;;;;1.75;100.00;99948.47;5012361;28;20045;-74
2023/02/13 04:03:50;;;;;;;1999.90;999.90;;;;;;;1.74;100.00;99946.78;5011963;28;20029;-74
2023/02/13 04:06:20;;;;;;;1999.90;999.90;;;;;;;1.67;100.00;99947.72;5012143;28;20050;-75
2023/02/13 04:08:46;;;;;;;1999.90;999.90;;;;;;;1.56;100.00;99944.50;5011730;28;20030;-75
2023/02/13 04:11:23;;;;;;;1999.90;999.90;;;;;;;1.45;100.00;99952.19;5011690;28;20383;-75
2023/02/13 04:13:52;;;;;;;1999.90;999.90;;;;;;;1.29;100.00;99950.53;5011862;28;20022;-75
2023/02/13 04:16:28;;;;;;;1999.90;999.90;;;;;;;1.16;100.00;99953.03;5011760;28;20040;-76
2023/02/13 04:18:55;;;;;;;1999.90;999.90;;;;;;;1.16;100.00;99955.75;5011884;28;20037;-74
2023/02/13 04:21:21;;;;;;;1999.90;999.90;;;;;;;1.01;100.00;99941.44;5011948;28;20126;-76
2023/02/13 04:23:46;;;;;;;1999.90;999.90;;;;;;;1.00;100.00;99943.28;5011704;28;20108;-75
2023/02/13 04:26:16;;;;;;;1999.90;999.90;;;;;;;0.92;100.00;99954.16;5011450;28;20399;-74
2023/02/13 04:28:42;;;;;;;1999.90;999.90;;;;;;;0.75;100.00;99939.16;5010879;28;20060;-75
2023/02/13 04:31:07;;;;;;;1999.90;999.90;;;;;;;0.63;100.00;99940.63;5011157;28;20440;-74
2023/02/13 04:33:33;;;;;;;1999.90;999.90;;;;;;;0.55;100.00;99943.41;5011340;28;20014;-76
2023/02/13 04:35:58;;;;;;;1999.90;999.90;;;;;;;0.48;100.00;99946.00;5011499;28;20053;-76
2023/02/13 04:38:23;;;;;;;1999.90;999.90;;;;;;;0.47;100.00;99947.00;5010896;28;20403;-76
2023/02/13 04:40:49;;;;;;;1999.90;999.90;;;;;;;0.41;100.00;99938.81;5011518;28;20042;-74
2023/02/13 04:43:14;;;;;;;1999.90;999.90;;;;;;;0.44;100.00;99939.28;5011520;28;20037;-76
2023/02/13 04:45:40;;;;;;;1999.90;999.90;;;;;;;0.42;100.00;99937.81;5012523;28;20475;-76
2023/02/13 04:48:05;;;;;;;1999.90;999.90;;;;;;;0.42;100.00;99941.34;5013317;28;20030;-75
2023/02/13 04:50:30;;;;;;;1999.90;999.90;;;;;;;0.30;100.00;99933.88;5011286;28;20026;-75
2023/02/13 04:52:56;;;;;;;1999.90;999.90;;;;;;;0.20;100.00;99935.97;5011395;28;20391;-76
2023/02/13 04:55:24;;;;;;;1999.90;999.90;;;;;;;0.26;100.00;99940.63;5006120;28;20072;-76
2023/02/13 04:57:54;;;;;;;1999.90;999.90;;;;;;;0.18;100.00;99941.53;4999659;28;20030;-77
2023/02/13 05:00:24;;;;;;;1999.90;999.90;;;;;;;0.14;100.00;99950.13;4994455;28;20026;-76
2023/02/13 05:02:49;;;;;;;1999.90;999.90;;;;;;;0.10;100.00;99941.59;5015068;28;20029;-74
2023/02/13 05:05:15;;;;;;;1999.90;999.90;;;;;;;-0.03;100.00;99941.34;5014691;28;20030;-76
2023/02/13 05:07:41;;;;;;;1999.90;999.90;;;;;;;-0.19;100.00;99930.72;5012690;28;20026;-78
2023/02/13 05:10:08;;;;;;;1999.90;999.90;;;;;;;-0.15;100.00;99935.53;5016166;28;20053;-76
2023/02/13 05:12:33;;;;;;;1999.90;999.90;;;;;;;-0.30;100.00;99933.78;5015156;28;20022;-75
2023/02/13 05:14:58;;;;;;;1999.90;999.90;;;;;;;-0.24;100.00;99938.47;4995068;28;20034;-75
2023/02/13 05:17:24;;;;;;;1999.90;999.90;;;;;;;-0.19;100.00;99946.84;4991170;28;20369;-76
2023/02/13 05:19:49;;;;;;;1999.90;999.90;;;;;;;-0.26;100.00;99948.56;4991010;28;20072;-73
2023/02/13 05:24:58;;;;;;;1999.90;999.90;;;;;;;-0.45;100.00;99936.41;5009397;28;20045;-75
2023/02/13 05:27:24;;;;;;;1999.90;999.90;;;;;;;-0.49;100.00;99945.81;5010871;28;20025;-76
2023/02/13 05:29:49;;;;;;;1999.90;999.90;;;;;;;-0.52;100.00;99940.78;5011003;28;20034;-76
2023/02/13 05:32:15;;;;;;;1999.90;999.90;;;;;;;-0.50;100.00;99946.81;5010165;28;20022;-76
2023/02/13 05:34:40;;;;;;;1999.90;999.90;;;;;;;-0.49;100.00;99950.34;5010772;28;20022;-75
2023/02/13 05:37:05;;;;;;;1999.90;999.90;;;;;;;-0.42;100.00;99941.44;5011688;28;20444;-76
2023/02/13 05:39:31;;;;;;;1999.90;999.90;;;;;;;-0.51;100.00;99947.84;5011152;28;20046;-76
2023/02/13 05:41:56;;;;;;;1999.90;999.90;;;;;;;-0.58;100.00;99944.19;4993767;28;20026;-74
2023/02/13 05:44:22;;;;;;;1999.90;999.90;;;;;;;-0.59;100.00;99942.50;5010397;28;20574;-76
2023/02/13 05:46:48;;;;;;;1999.90;999.90;;;;;;;-0.48;100.00;99946.66;5008100;28;20038;-74
2023/02/13 05:49:14;;;;;;;1999.90;999.90;;;;;;;-0.59;100.00;99934.44;5009828;28;20041;-76
2023/02/13 05:51:41;;;;;;;1999.90;999.90;;;;;;;-0.62;100.00;99935.63;5010605;28;20100;-76
2023/02/13 05:54:06;;;;;;;1999.90;999.90;;;;;;;-0.56;100.00;99934.09;5010419;28;20455;-74
2023/02/13 05:56:36;;;;;;;1999.90;999.90;;;;;;;-0.60;100.00;99943.53;5010871;28;20028;-75
2023/02/13 05:59:01;;;;;;;1999.90;999.90;;;;;;;-0.73;100.00;99948.63;4997648;28;20029;-74
2023/02/13 06:01:26;;;;;;;1999.90;999.90;;;;;;;-0.56;100.00;99955.59;5010333;28;20030;-78
2023/02/13 06:03:52;;;;;;;1999.90;999.90;;;;;;;-0.57;100.00;99944.03;5009950;28;20104;-77
2023/02/13 06:06:17;;;;;;;1999.90;999.90;;;;;;;-0.59;100.00;99947.88;4993240;28;20431;-76
2023/02/13 06:08:43;;;;;;;1999.90;999.90;;;;;;;-0.66;100.00;99945.03;5004454;28;20034;-80
2023/02/13 06:11:09;;;;;;;1999.90;999.90;;;;;;;-0.58;100.00;99960.31;5010253;28;20117;-77
2023/02/13 06:13:34;;;;;;;1999.90;999.90;;;;;;;-0.62;100.00;99951.75;5011094;28;20034;-84
2023/02/13 06:16:00;;;;;;;1999.90;999.90;;;;;;;-0.59;100.00;99951.41;5010776;28;20026;-79
2023/02/13 06:18:26;;;;;;;1999.90;999.90;;;;;;;-0.45;100.00;99971.34;5012422;28;20025;-76
2023/02/13 06:20:51;;;;;;;1999.90;999.90;;;;;;;-0.61;100.00;99949.91;5008912;28;20466;-74
2023/02/13 06:23:17;;;;;;;1999.90;999.90;;;;;;;-0.45;100.00;99967.81;5008575;28;20129;-75
2023/02/13 06:25:42;;;;;;;1999.90;999.90;;;;;;;-0.43;100.00;99966.63;5008857;28;20064;-75
2023/02/13 06:28:08;;;;;;;1999.90;999.90;;;;;;;-0.41;100.00;99969.13;5008526;28;20034;-74
2023/02/13 06:30:33;;;;;;;1999.90;999.90;;;;;;;-0.36;100.00;99967.59;5008807;28;20026;-75
2023/02/13 06:32:59;;;;;;;1999.90;999.90;;;;;;;-0.28;100.00;99975.59;5009983;28;20080;-76
2023/02/13 06:35:25;;;;;;;1999.90;999.90;;;;;;;-0.28;100.00;99967.53;5013973;28;20510;-78
2023/02/13 06:37:50;;;;;;;1999.90;999.90;;;;;;;-0.23;100.00;99973.25;5014281;28;20116;-76
2023/02/13 06:40:16;;;;;;;1999.90;999.90;;;;;;;-0.03;100.00;99965.53;5016247;28;20046;-73
2023/02/13 06:42:43;;;;;;;1999.90;999.90;;;;;;;0.02;100.00;99973.09;5014376;28;20018;-75
2023/02/13 06:45:12;;;;;;;1999.90;999.90;;;;;;;0.10;100.00;99970.34;5015423;28;21102;-78
2023/02/13 06:47:42;;;;;;;1999.90;999.90;;;;;;;0.20;100.00;99984.41;5018800;28;20034;-79
2023/02/13 06:50:09;;;;;;;1999.90;999.90;;;;;;;0.34;100.00;99976.41;5011988;28;20061;-79
2023/02/13 06:52:34;;;;;;;1999.90;999.90;;;;;;;0.59;100.00;99985.13;5012053;28;20029;-82
2023/02/13 06:55:00;;;;;;;1999.90;999.90;;;;;;;0.65;100.00;99979.00;5012281;28;20396;-78
2023/02/13 06:57:25;;;;;;;1999.90;999.90;;;;;;;0.75;100.00;99989.53;5011727;28;20030;-78
2023/02/13 06:59:51;;;;;;;1999.90;999.90;;;;;;;1.04;100.00;99976.94;5012240;28;20034;-79
2023/02/13 07:02:16;;;;;;;1999.90;999.90;;;;;;;1.23;100.00;99993.56;5012716;28;20029;-81
2023/02/13 07:04:42;;;;;;;1999.90;999.90;;;;;;;1.61;100.00;99993.28;5012993;28;20026;-78
2023/02/13 07:07:07;;;;;;;1999.90;999.90;;;;;;;1.92;100.00;99990.34;5012678;28;20041;-80
2023/02/13 07:09:33;;;;;;;1999.90;999.90;;;;;;;2.20;100.00;99997.72;5012631;28;20119;-81
2023/02/13 07:12:02;;;;;;;1999.90;999.90;;;;;;;2.36;100.00;99987.50;5012618;28;20222;-80
2023/02/13 07:14:27;;;;;;;1999.90;999.90;;;;;;;2.66;100.00;99986.34;5013282;28;20049;-77
2023/02/13 07:16:53;;;;;;;1999.90;999.90;;;;;;;2.82;100.00;100006.84;5013261;28;20034;-79
2023/02/13 07:19:18;;;;;;;1999.90;999.90;;;;;;;3.67;100.00;100015.56;5000677;28;20033;-78
2023/02/13 07:21:43;;;;;;;1999.90;999.90;;;;;;;3.95;100.00;100009.22;4996329;28;20446;-81
2023/02/13 07:24:09;;;;;;;1999.90;999.90;;;;;;;4.29;100.00;100009.16;4977667;28;20034;-78
2023/02/13 07:26:34;;;;;;;1999.90;999.90;;;;;;;4.90;100.00;100015.31;4993480;28;20026;-84
2023/02/13 07:29:04;;;;;;;1999.90;999.90;;;;;;;5.34;100.00;100012.78;4993880;28;20474;-77
2023/02/13 07:31:32;;;;;;;1999.90;999.90;;;;;;;5.97;100.00;100020.38;4993936;28;20612;-83
2023/02/13 07:33:57;;;;;;;1999.90;999.90;;;;;;;6.36;100.00;100007.44;4993809;28;20364;-80
2023/02/13 07:36:23;;;;;;;1999.90;999.90;;;;;;;7.58;94.01;100020.50;4993926;28;20032;-81
2023/02/13 07:38:48;;;;;;;1999.90;999.90;;;;;;;8.57;85.56;100020.19;4992916;28;20047;-79
2023/02/13 07:41:13;;;;;;;1999.90;999.90;;;;;;;8.03;86.12;100030.06;4993171;28;20033;-79
2023/02/13 07:43:39;;;;;;;1999.90;999.90;;;;;;;7.96;87.14;100023.03;4993168;28;20126;-77
2023/02/13 07:46:04;;;;;;;1999.90;999.90;;;;;;;8.61;85.33;100021.41;4992950;28;20046;-80
2023/02/13 07:48:30;;;;;;;1999.90;999.90;;;;;;;9.81;78.46;100030.91;4993201;28;20026;-80
2023/02/13 07:51:00;;;;;;;1999.90;999.90;;;;;;;9.41;74.75;100033.53;4992699;28;20121;-78
2023/02/13 07:53:26;;;;;;;1999.90;999.90;;;;;;;9.89;72.77;100040.66;4992307;28;20038;-78
2023/02/13 07:55:51;;;;;;;1999.90;999.90;;;;;;;10.49;70.10;100041.16;4992098;28;20022;-80
2023/02/13 07:58:16;;;;;;;1999.90;999.90;;;;;;;11.02;67.56;100044.38;4992188;28;20030;-78
2023/02/13 08:00:42;;;;;;;1999.90;999.90;;;;;;;11.46;63.45;100042.66;4992354;28;20061;-82
2023/02/13 08:03:09;;;;;;;1999.90;999.90;;;;;;;12.32;59.44;100052.16;4974257;28;20546;-79
2023/02/13 08:05:34;;;;;;;1999.90;999.90;;;;;;;11.40;61.45;100042.81;4992736;28;20061;-79
2023/02/13 08:08:00;;;;;;;1999.90;999.90;;;;;;;11.43;61.90;100048.66;4992225;28;20046;-80
2023/02/13 08:13:13;;;;;;;1999.90;999.90;;;;;;;12.27;59.65;100044.69;4992119;28;20076;-78
2023/02/13 08:15:38;;;;;;;1999.90;999.90;;;;;;;13.19;55.40;100046.53;4991873;28;20096;-80
2023/02/13 08:18:04;;;;;;;1999.90;999.90;;;;;;;13.25;54.14;100040.84;4992166;28;20480;-79
2023/02/13 08:20:29;;;;;;;1999.90;999.90;;;;;;;13.60;53.56;100025.72;4992391;28;20435;-79
2023/02/13 08:23:01;;;;;;;1999.90;999.90;;;;;;;13.23;53.75;100042.19;4992122;28;20498;-79
2023/02/13 08:25:27;;;;;;;1999.90;999.90;;;;;;;12.95;55.66;100034.19;4991886;28;20026;-79
2023/02/13 08:27:52;;;;;;;1999.90;999.90;;;;;;;14.00;52.47;100045.28;4992134;28;20030;-78
2023/02/13 08:30:17;;;;;;;1999.90;999.90;;;;;;;13.90;51.65;100035.03;4991837;28;20129;-79
2023/02/13 08:32:43;;;;;;;1999.90;999.90;;;;;;;12.63;56.16;100039.63;4992132;28;20053;-79
2023/02/13 08:35:08;;;;;;;1999.90;999.90;;;;;;;14.35;51.64;100042.72;4991794;28;20023;-79
2023/02/13 08:37:33;;;;;;;1999.90;999.90;;;;;;;14.02;51.57;100045.00;4974332;28;20125;-80
2023/02/13 08:39:59;;;;;;;1999.90;999.90;;;;;;;15.10;47.25;100041.28;4991770;28;20121;-83
2023/02/13 08:42:24;;;;;;;1999.90;999.90;;;;;;;13.61;51.06;100033.72;4991831;28;20033;-80
2023/02/13 08:44:49;;;;;;;1999.90;999.90;;;;;;;14.38;49.53;100036.66;4991650;28;20102;-79
2023/02/13 08:47:15;;;;;;;1999.90;999.90;;;;;;;14.96;48.02;100029.16;4991685;28;20108;-78
2023/02/13 08:49:40;;;;;;;1999.90;999.90;;;;;;;15.30;47.26;100027.53;4974660;28;20030;-78
2023/02/13 08:52:06;;;;;;;1999.90;999.90;;;;;;;15.08;47.62;100032.47;4991876;28;20062;-79
2023/02/13 08:54:33;;;;;;;1999.90;999.90;;;;;;;15.54;46.27;100030.59;4991715;28;20125;-78
2023/02/13 08:56:59;;;;;;;1999.90;999.90;;;;;;;15.13;46.74;100035.22;4991153;28;20069;-79
2023/02/13 08:59:24;;;;;;;1999.90;999.90;;;;;;;15.54;45.74;100030.59;4991760;28;20030;-84
2023/02/13 09:01:50;;;;;;;1999.90;999.90;;;;;;;16.84;42.53;100023.03;4974613;28;20391;-81
2023/02/13 09:04:16;;;;;;;1999.90;999.90;;;;;;;15.96;43.48;100024.75;4991811;28;20405;-79
2023/02/13 09:06:42;;;;;;;1999.90;999.90;;;;;;;16.11;42.74;100030.22;4991428;28;20531;-79
2023/02/13 09:09:07;;;;;;;1999.90;999.90;;;;;;;15.91;43.06;100025.56;4991316;28;20146;-80
2023/02/13 09:11:33;;;;;;;1999.90;999.90;;;;;;;16.06;43.13;100021.97;4991488;28;20388;-84
2023/02/13 09:13:58;;;;;;;1999.90;999.90;;;;;;;17.11;41.11;100031.69;4991327;28;20026;-81
2023/02/13 09:16:24;;;;;;;1999.90;999.90;;;;;;;16.56;40.98;100026.50;4991420;28;20053;-76
2023/02/13 09:18:50;;;;;;;1999.90;999.90;;;;;;;15.85;42.71;100026.69;4974500;28;20030;-81
2023/02/13 09:21:22;;;;;;;1999.90;999.90;;;;;;;16.90;41.08;100037.66;4974428;28;20550;-77
2023/02/13 09:23:49;;;;;;;1999.90;999.90;;;;;;;17.75;39.31;100033.44;4974211;28;20023;-79
2023/02/13 09:26:15;;;;;;;1999.90;999.90;;;;;;;16.98;39.90;100037.03;4991688;28;20053;-75
2023/02/13 09:28:41;;;;;;;1999.90;999.90;;;;;;;15.20;42.78;100029.44;4992355;28;20113;-82
2023/02/13 09:31:07;;;;;;;1999.90;999.90;;;;;;;15.55;43.22;100029.50;4976530;28;20022;-85
2023/02/13 09:33:33;;;;;;;1999.90;999.90;;;;;;;16.25;41.66;100034.06;4995761;28;20014;-76
2023/02/13 09:36:09;;;;;;;1999.90;999.90;;;;;;;16.00;41.83;100021.16;4993972;28;20113;-77
2023/02/13 09:38:34;;;;;;;1999.90;999.90;;;;;;;16.60;40.17;100022.06;4991002;28;20141;-78
2023/02/13 09:41:04;;;;;;;1999.90;999.90;;;;;;;16.18;40.85;100029.94;4991114;28;20114;-77
2023/02/13 09:43:32;;;;;;;1999.90;999.90;;;;;;;16.10;41.47;100027.75;4991140;28;20499;-77
2023/02/13 09:46:00;;;;;;;1999.90;999.90;;;;;;;15.26;42.91;100014.56;4991079;28;20022;-78
2023/02/13 09:48:33;;;;;;;1999.90;999.90;;;;;;;17.07;40.10;100021.50;4973474;28;20039;-74
2023/02/13 09:50:59;;;;;;;1999.90;999.90;;;;;;;17.16;39.35;100027.25;4991361;28;20432;-76
2023/02/13 09:53:27;;;;;;;1999.90;999.90;;;;;;;16.82;39.89;100018.91;4991240;28;20023;-78
2023/02/13 09:56:02;;;;;;;1999.90;999.90;;;;;;;17.61;38.32;100021.38;4973590;28;20387;-78
2023/02/13 09:58:40;;;;;;;1999.90;999.90;;;;;;;17.67;37.72;100020.22;4991049;28;20038;-82
2023/02/13 10:01:19;;;;;;;1999.90;999.90;;;;;;;16.00;41.11;100021.16;4973479;28;20038;-78
2023/02/13 10:03:54;;;;;;;1999.90;999.90;;;;;;;16.43;40.29;100025.16;4990817;28;20043;-79
2023/02/13 10:06:35;;;;;;;1999.90;999.90;;;;;;;16.95;40.05;100012.72;4990926;28;20031;-76
2023/02/13 10:09:15;;;;;;;1999.90;999.90;;;;;;;17.26;39.19;100007.81;4994586;28;20437;-76
2023/02/13 10:11:53;;;;;;;1999.90;999.90;;;;;;;17.52;38.33;100006.47;4994835;28;20109;-77
2023/02/13 10:14:22;;;;;;;1999.90;999.90;;;;;;;16.61;39.79;100007.13;4994651;28;20031;-77
2023/02/13 10:17:16;;;;;;;1999.90;999.90;;;;;;;16.42;40.66;100003.31;4994697;28;20035;-77
2023/02/13 10:19:58;;;;;;;1999.90;999.90;;;;;;;16.65;40.60;99996.34;5008807;28;20026;-77
2023/02/13 10:22:48;;;;;;;1999.90;999.90;;;;;;;16.68;40.31;99990.22;5014564;28;20438;-76
2023/02/13 10:25:21;;;;;;;1999.90;999.90;;;;;;;17.71;38.55;99996.38;5013767;28;20034;-75
2023/02/13 10:27:54;;;;;;;1999.90;999.90;;;;;;;17.55;38.03;99989.31;4996243;28;20084;-75
2023/02/13 10:30:26;;;;;;;1999.90;999.90;;;;;;;16.79;40.39;99987.09;5013673;28;20682;-75
2023/02/13 10:33:19;;;;;;;1999.90;999.90;;;;;;;16.53;40.98;99977.31;5013960;28;20028;-81
2023/02/13 10:35:57;;;;;;;1999.90;999.90;;;;;;;16.91;40.02;99984.84;5013748;28;20459;-77
2023/02/13 10:38:23;;;;;;;1999.90;999.90;;;;;;;15.61;42.70;99970.44;5013631;28;20581;-77
2023/02/13 10:40:57;;;;;;;1999.90;999.90;;;;;;;16.45;41.25;99975.94;4996064;28;20112;-76
2023/02/13 10:43:27;;;;;;;1999.90;999.90;;;;;;;16.64;41.99;99965.09;5013653;28;20116;-75
2023/02/13 10:46:04;;;;;;;1999.90;999.90;;;;;;;16.68;41.82;99963.44;5013611;28;20026;-76
2023/02/13 10:48:41;;;;;;;1999.90;999.90;;;;;;;17.89;38.67;99956.84;5013491;28;20037;-78
2023/02/13 10:51:16;;;;;;;1999.90;999.90;;;;;;;17.23;40.23;99950.31;5013819;28;20064;-77
2023/02/13 10:54:09;;;;;;;1999.90;999.90;;;;;;;15.64;44.47;99952.50;5013494;28;20088;-76
2023/02/13 10:57:09;;;;;;;1999.90;999.90;;;;;;;16.34;42.33;99940.38;4996790;28;20029;-77
2023/02/13 11:00:02;;;;;;;1999.90;999.90;;;;;;;16.49;41.50;99940.28;5014054;28;20038;-76
2023/02/13 11:02:34;;;;;;;1999.90;999.90;;;;;;;16.50;41.58;99934.50;5013319;28;20041;-76
2023/02/13 11:05:24;;;;;;;1999.90;999.90;;;;;;;16.67;40.55;99936.88;5013398;28;20030;-75
2023/02/13 11:07:49;;;;;;;1999.90;999.90;;;;;;;16.84;40.17;99918.00;5012684;28;20633;-75
2023/02/13 11:10:16;;;;;;;1999.90;999.90;;;;;;;16.39;41.61;99927.38;5013151;28;20120;-76
2023/02/13 11:12:41;;;;;;;1999.90;999.90;;;;;;;16.38;41.52;99922.13;5013532;28;20045;-80
2023/02/13 11:15:24;;;;;;;1999.90;999.90;;;;;;;15.78;42.80;99915.78;5013130;28;20026;-76
2023/02/13 11:17:52;;;;;;;1999.90;999.90;;;;;;;16.50;40.54;99917.09;5012715;28;20403;-75
2023/02/13 11:20:29;;;;;;;1999.90;999.90;;;;;;;15.70;42.79;99916.34;5012570;28;20049;-77
2023/02/13 11:22:56;;;;;;;1999.90;999.90;;;;;;;15.08;42.81;99911.19;5013276;28;20018;-79
2023/02/13 11:25:25;;;;;;;1999.90;999.90;;;;;;;15.32;42.78;99901.22;5012731;28;20136;-78
2023/02/13 11:28:03;;;;;;;1999.90;999.90;;;;;;;16.26;41.10;99903.13;5012907;28;20395;-76
2023/02/13 11:30:31;;;;;;;1999.90;999.90;;;;;;;15.81;41.58;99903.34;5012729;28;20045;-77
2023/02/13 11:33:05;;;;;;;1999.90;999.90;;;;;;;15.72;41.64;99897.59;5012870;28;20111;-75
2023/02/13 11:35:34;;;;;;;1999.90;999.90;;;;;;;14.59;43.55;99886.09;5012955;28;20065;-77
2023/02/13 11:38:32;;;;;;;1999.90;999.90;;;;;;;15.23;42.71;99891.88;4995083;28;20462;-79
2023/02/13 11:41:11;;;;;;;1999.90;999.90;;;;;;;15.72;41.79;99899.50;4952667;28;20461;-76
2023/02/13 11:43:50;;;;;;;1999.90;999.90;;;;;;;14.89;42.96;99883.34;4996102;28;20057;-77
2023/02/13 11:46:22;;;;;;;1999.90;999.90;;;;;;;14.55;44.14;99889.66;5016136;28;20021;-79